sensor_id;sensor_type;location;lat;lon;timestamp;P1;durP1;ratioP1;P2;durP2;ratioP2
52072;SDS011;38074;51.232;6.826;2023-02-28T00:01:13;1.30;;;0.60;;
52072;SDS011;38074;51.232;6.826;2023-02-28T00:08:29;1.77;;;0.40;;
52072;SDS011;38074;51.232;6.826;2023-02-28T00:15:45;1.58;;;0.40;;
52072;SDS011;38074;51.232;6.826;2023-02-28T00:23:00;0.98;;;0.43;;
52072;SDS011;38074;51.232;6.826;2023-02-28T00:30:17;1.00;;;0.30;;
52072;SDS011;38074;51.232;6.826;2023-02-28T00:37:34;1.85;;;0.43;;
52072;SDS011;38074;51.232;6.826;2023-02-28T00:44:50;0.73;;;0.20;;
52072;SDS011;38074;51.232;6.826;2023-02-28T00:52:05;0.50;;;0.20;;
52072;SDS011;38074;51.232;6.826;2023-02-28T00:59:21;0.73;;;0.30;;
52072;SDS011;38074;51.232;6.826;2023-02-28T01:06:36;0.70;;;0.40;;
52072;SDS011;38074;51.232;6.826;2023-02-28T01:13:52;3.13;;;0.60;;
52072;SDS011;38074;51.232;6.826;2023-02-28T01:21:09;0.57;;;0.20;;
52072;SDS011;38074;51.232;6.826;2023-02-28T01:28:27;0.82;;;0.40;;
52072;SDS011;38074;51.232;6.826;2023-02-28T01:35:42;0.73;;;0.40;;
52072;SDS011;38074;51.232;6.826;2023-02-28T01:42:58;0.70;;;0.30;;
52072;SDS011;38074;51.232;6.826;2023-02-28T01:50:14;0.90;;;0.37;;
52072;SDS011;38074;51.232;6.826;2023-02-28T01:57:35;1.48;;;0.30;;
52072;SDS011;38074;51.232;6.826;2023-02-28T02:04:56;0.50;;;0.20;;
52072;SDS011;38074;51.232;6.826;2023-02-28T02:12:26;0.57;;;0.40;;
52072;SDS011;38074;51.232;6.826;2023-02-28T02:27:38;0.68;;;0.28;;
52072;SDS011;38074;51.232;6.826;2023-02-28T02:42:47;0.98;;;0.38;;
52072;SDS011;38074;51.232;6.826;2023-02-28T02:50:14;0.98;;;0.40;;
52072;SDS011;38074;51.232;6.826;2023-02-28T02:57:46;0.88;;;0.50;;
52072;SDS011;38074;51.232;6.826;2023-02-28T03:05:06;0.90;;;0.50;;
52072;SDS011;38074;51.232;6.826;2023-02-28T03:12:33;0.80;;;0.40;;
52072;SDS011;38074;51.232;6.826;2023-02-28T03:20:07;1.20;;;0.30;;
52072;SDS011;38074;51.232;6.826;2023-02-28T03:27:32;1.52;;;0.50;;
52072;SDS011;38074;51.232;6.826;2023-02-28T03:35:10;0.95;;;0.40;;
52072;SDS011;38074;51.232;6.826;2023-02-28T03:42:36;0.97;;;0.30;;
52072;SDS011;38074;51.232;6.826;2023-02-28T03:49:57;0.65;;;0.30;;
52072;SDS011;38074;51.232;6.826;2023-02-28T03:57:26;0.90;;;0.25;;
52072;SDS011;38074;51.232;6.826;2023-02-28T04:04:48;1.65;;;0.30;;
52072;SDS011;38074;51.232;6.826;2023-02-28T04:12:04;0.50;;;0.30;;
52072;SDS011;38074;51.232;6.826;2023-02-28T04:19:19;0.70;;;0.40;;
52072;SDS011;38074;51.232;6.826;2023-02-28T04:26:36;0.70;;;0.37;;
52072;SDS011;38074;51.232;6.826;2023-02-28T04:33:51;0.73;;;0.30;;
52072;SDS011;38074;51.232;6.826;2023-02-28T04:41:07;1.27;;;0.40;;
52072;SDS011;38074;51.232;6.826;2023-02-28T04:48:23;0.50;;;0.20;;
52072;SDS011;38074;51.232;6.826;2023-02-28T04:55:39;1.13;;;0.33;;
52072;SDS011;38074;51.232;6.826;2023-02-28T05:02:55;1.38;;;0.20;;
52072;SDS011;38074;51.232;6.826;2023-02-28T05:10:11;0.93;;;0.37;;
52072;SDS011;38074;51.232;6.826;2023-02-28T05:17:26;0.77;;;0.28;;
52072;SDS011;38074;51.232;6.826;2023-02-28T05:24:42;1.00;;;0.20;;
52072;SDS011;38074;51.232;6.826;2023-02-28T05:31:57;0.80;;;0.30;;
52072;SDS011;38074;51.232;6.826;2023-02-28T05:39:14;0.50;;;0.30;;
52072;SDS011;38074;51.232;6.826;2023-02-28T05:46:29;0.47;;;0.17;;
52072;SDS011;38074;51.232;6.826;2023-02-28T05:53:45;0.90;;;0.20;;
52072;SDS011;38074;51.232;6.826;2023-02-28T06:01:11;0.63;;;0.30;;
52072;SDS011;38074;51.232;6.826;2023-02-28T06:08:38;0.57;;;0.30;;
52072;SDS011;38074;51.232;6.826;2023-02-28T06:15:54;1.23;;;0.30;;
52072;SDS011;38074;51.232;6.826;2023-02-28T06:23:09;32.63;;;7.97;;
52072;SDS011;38074;51.232;6.826;2023-02-28T06:30:25;11.77;;;3.20;;
52072;SDS011;38074;51.232;6.826;2023-02-28T06:37:41;10.82;;;3.08;;
52072;SDS011;38074;51.232;6.826;2023-02-28T06:44:58;15.73;;;3.80;;
52072;SDS011;38074;51.232;6.826;2023-02-28T06:52:14;17.03;;;3.37;;
52072;SDS011;38074;51.232;6.826;2023-02-28T06:59:30;11.80;;;2.50;;
52072;SDS011;38074;51.232;6.826;2023-02-28T07:06:45;13.32;;;2.75;;
52072;SDS011;38074;51.232;6.826;2023-02-28T07:14:01;16.93;;;2.70;;
52072;SDS011;38074;51.232;6.826;2023-02-28T07:21:17;10.67;;;3.00;;
52072;SDS011;38074;51.232;6.826;2023-02-28T07:28:32;12.20;;;2.73;;
52072;SDS011;38074;51.232;6.826;2023-02-28T07:35:48;8.40;;;2.70;;
52072;SDS011;38074;51.232;6.826;2023-02-28T07:43:03;7.70;;;1.93;;
52072;SDS011;38074;51.232;6.826;2023-02-28T07:50:19;7.67;;;1.80;;
52072;SDS011;38074;51.232;6.826;2023-02-28T07:57:34;5.10;;;1.70;;
52072;SDS011;38074;51.232;6.826;2023-02-28T08:04:50;7.28;;;1.63;;
52072;SDS011;38074;51.232;6.826;2023-02-28T08:12:06;11.47;;;1.43;;
52072;SDS011;38074;51.232;6.826;2023-02-28T08:19:23;3.33;;;1.30;;
52072;SDS011;38074;51.232;6.826;2023-02-28T08:26:38;2.30;;;0.82;;
52072;SDS011;38074;51.232;6.826;2023-02-28T08:33:54;5.63;;;1.37;;
52072;SDS011;38074;51.232;6.826;2023-02-28T08:41:12;3.30;;;0.90;;
52072;SDS011;38074;51.232;6.826;2023-02-28T08:48:28;3.03;;;0.82;;
52072;SDS011;38074;51.232;6.826;2023-02-28T08:55:44;4.50;;;0.83;;
52072;SDS011;38074;51.232;6.826;2023-02-28T09:03:00;2.58;;;0.95;;
52072;SDS011;38074;51.232;6.826;2023-02-28T09:10:16;2.58;;;0.70;;
52072;SDS011;38074;51.232;6.826;2023-02-28T09:17:32;4.47;;;0.80;;
52072;SDS011;38074;51.232;6.826;2023-02-28T09:24:47;4.20;;;0.80;;
52072;SDS011;38074;51.232;6.826;2023-02-28T09:32:03;2.60;;;0.70;;
52072;SDS011;38074;51.232;6.826;2023-02-28T09:39:23;2.10;;;0.45;;
52072;SDS011;38074;51.232;6.826;2023-02-28T09:46:43;1.48;;;0.50;;
52072;SDS011;38074;51.232;6.826;2023-02-28T09:54:03;1.50;;;0.50;;
52072;SDS011;38074;51.232;6.826;2023-02-28T10:09:23;1.20;;;0.60;;
52072;SDS011;38074;51.232;6.826;2023-02-28T10:16:52;1.58;;;0.50;;
52072;SDS011;38074;51.232;6.826;2023-02-28T10:31:55;0.60;;;0.30;;
52072;SDS011;38074;51.232;6.826;2023-02-28T10:46:49;1.35;;;0.40;;
52072;SDS011;38074;51.232;6.826;2023-02-28T10:54:11;1.17;;;0.30;;
52072;SDS011;38074;51.232;6.826;2023-02-28T11:01:50;1.10;;;0.38;;
52072;SDS011;38074;51.232;6.826;2023-02-28T11:16:44;1.00;;;0.20;;
52072;SDS011;38074;51.232;6.826;2023-02-28T11:24:22;1.03;;;0.40;;
52072;SDS011;38074;51.232;6.826;2023-02-28T11:39:33;2.80;;;0.40;;
52072;SDS011;38074;51.232;6.826;2023-02-28T11:46:52;1.70;;;0.40;;
52072;SDS011;38074;51.232;6.826;2023-02-28T12:17:22;2.28;;;1.10;;
52072;SDS011;38074;51.232;6.826;2023-02-28T12:33:03;2.28;;;1.10;;
52072;SDS011;38074;51.232;6.826;2023-02-28T12:40:23;2.13;;;1.10;;
52072;SDS011;38074;51.232;6.826;2023-02-28T12:47:42;2.45;;;1.10;;
52072;SDS011;38074;51.232;6.826;2023-02-28T12:55:06;2.05;;;1.17;;
52072;SDS011;38074;51.232;6.826;2023-02-28T13:10:12;1.92;;;0.95;;
52072;SDS011;38074;51.232;6.826;2023-02-28T13:17:30;1.58;;;0.80;;
52072;SDS011;38074;51.232;6.826;2023-02-28T14:02:03;1.15;;;0.68;;
52072;SDS011;38074;51.232;6.826;2023-02-28T14:09:40;0.90;;;0.50;;
52072;SDS011;38074;51.232;6.826;2023-02-28T14:17:01;1.77;;;0.50;;
52072;SDS011;38074;51.232;6.826;2023-02-28T14:24:28;0.60;;;0.32;;
52072;SDS011;38074;51.232;6.826;2023-02-28T14:39:40;0.70;;;0.30;;
52072;SDS011;38074;51.232;6.826;2023-02-28T14:46:57;0.93;;;0.50;;
52072;SDS011;38074;51.232;6.826;2023-02-28T14:54:21;2.85;;;0.57;;
52072;SDS011;38074;51.232;6.826;2023-02-28T15:01:38;0.88;;;0.50;;
52072;SDS011;38074;51.232;6.826;2023-02-28T15:16:45;1.05;;;0.50;;
52072;SDS011;38074;51.232;6.826;2023-02-28T15:24:17;0.80;;;0.25;;
52072;SDS011;38074;51.232;6.826;2023-02-28T15:32:06;0.98;;;0.50;;
52072;SDS011;38074;51.232;6.826;2023-02-28T15:39:31;0.85;;;0.40;;
52072;SDS011;38074;51.232;6.826;2023-02-28T15:47:03;1.38;;;0.30;;
52072;SDS011;38074;51.232;6.826;2023-02-28T15:54:34;0.55;;;0.40;;
52072;SDS011;38074;51.232;6.826;2023-02-28T16:09:33;0.60;;;0.40;;
52072;SDS011;38074;51.232;6.826;2023-02-28T16:16:50;0.70;;;0.30;;
52072;SDS011;38074;51.232;6.826;2023-02-28T16:24:08;1.40;;;0.47;;
52072;SDS011;38074;51.232;6.826;2023-02-28T16:31:23;0.60;;;0.30;;
52072;SDS011;38074;51.232;6.826;2023-02-28T16:38:39;0.68;;;0.30;;
52072;SDS011;38074;51.232;6.826;2023-02-28T16:45:55;2.15;;;0.40;;
52072;SDS011;38074;51.232;6.826;2023-02-28T16:53:13;1.67;;;0.30;;
52072;SDS011;38074;51.232;6.826;2023-02-28T17:00:30;0.70;;;0.30;;
52072;SDS011;38074;51.232;6.826;2023-02-28T17:07:47;5.45;;;0.75;;
52072;SDS011;38074;51.232;6.826;2023-02-28T17:15:04;2.97;;;0.40;;
52072;SDS011;38074;51.232;6.826;2023-02-28T17:22:21;4.00;;;0.47;;
52072;SDS011;38074;51.232;6.826;2023-02-28T17:29:36;2.00;;;0.70;;
52072;SDS011;38074;51.232;6.826;2023-02-28T17:36:52;4.33;;;0.60;;
52072;SDS011;38074;51.232;6.826;2023-02-28T17:44:08;2.47;;;0.50;;
52072;SDS011;38074;51.232;6.826;2023-02-28T17:51:24;3.95;;;0.70;;
52072;SDS011;38074;51.232;6.826;2023-02-28T17:58:39;2.65;;;1.15;;
52072;SDS011;38074;51.232;6.826;2023-02-28T18:05:55;2.13;;;0.50;;
52072;SDS011;38074;51.232;6.826;2023-02-28T18:13:11;5.93;;;0.80;;
52072;SDS011;38074;51.232;6.826;2023-02-28T18:20:27;2.28;;;0.70;;
52072;SDS011;38074;51.232;6.826;2023-02-28T18:27:43;5.32;;;0.60;;
52072;SDS011;38074;51.232;6.826;2023-02-28T18:35:08;3.33;;;1.02;;
52072;SDS011;38074;51.232;6.826;2023-02-28T18:42:23;4.20;;;0.85;;
52072;SDS011;38074;51.232;6.826;2023-02-28T18:49:39;3.33;;;0.90;;
52072;SDS011;38074;51.232;6.826;2023-02-28T18:56:54;9.02;;;1.15;;
52072;SDS011;38074;51.232;6.826;2023-02-28T19:04:11;5.20;;;1.20;;
52072;SDS011;38074;51.232;6.826;2023-02-28T19:11:28;3.78;;;0.90;;
52072;SDS011;38074;51.232;6.826;2023-02-28T19:18:44;6.28;;;0.98;;
52072;SDS011;38074;51.232;6.826;2023-02-28T19:25:59;5.63;;;1.05;;
52072;SDS011;38074;51.232;6.826;2023-02-28T19:33:19;6.25;;;1.30;;
52072;SDS011;38074;51.232;6.826;2023-02-28T19:40:35;6.88;;;1.00;;
52072;SDS011;38074;51.232;6.826;2023-02-28T19:47:51;6.15;;;0.93;;
52072;SDS011;38074;51.232;6.826;2023-02-28T19:55:06;5.00;;;1.00;;
52072;SDS011;38074;51.232;6.826;2023-02-28T20:02:22;4.03;;;1.00;;
52072;SDS011;38074;51.232;6.826;2023-02-28T20:09:38;9.40;;;1.35;;
52072;SDS011;38074;51.232;6.826;2023-02-28T20:16:54;7.80;;;0.98;;
52072;SDS011;38074;51.232;6.826;2023-02-28T20:24:10;4.47;;;0.90;;
52072;SDS011;38074;51.232;6.826;2023-02-28T20:31:26;2.57;;;0.87;;
52072;SDS011;38074;51.232;6.826;2023-02-28T20:38:42;2.85;;;0.70;;
52072;SDS011;38074;51.232;6.826;2023-02-28T20:45:58;3.43;;;0.87;;
52072;SDS011;38074;51.232;6.826;2023-02-28T20:53:17;4.22;;;0.63;;
52072;SDS011;38074;51.232;6.826;2023-02-28T21:00:33;3.88;;;0.80;;
52072;SDS011;38074;51.232;6.826;2023-02-28T21:07:49;3.17;;;0.57;;
52072;SDS011;38074;51.232;6.826;2023-02-28T21:15:04;1.07;;;0.40;;
52072;SDS011;38074;51.232;6.826;2023-02-28T21:22:20;4.00;;;0.98;;
52072;SDS011;38074;51.232;6.826;2023-02-28T21:29:36;2.00;;;0.50;;
52072;SDS011;38074;51.232;6.826;2023-02-28T21:36:52;1.73;;;0.60;;
52072;SDS011;38074;51.232;6.826;2023-02-28T21:44:09;3.25;;;0.80;;
52072;SDS011;38074;51.232;6.826;2023-02-28T21:51:32;2.03;;;0.70;;
52072;SDS011;38074;51.232;6.826;2023-02-28T21:58:47;1.20;;;0.50;;
52072;SDS011;38074;51.232;6.826;2023-02-28T22:06:10;1.65;;;0.50;;
52072;SDS011;38074;51.232;6.826;2023-02-28T22:13:27;0.98;;;0.60;;
52072;SDS011;38074;51.232;6.826;2023-02-28T22:20:43;1.63;;;0.60;;
52072;SDS011;38074;51.232;6.826;2023-02-28T22:27:58;0.80;;;0.40;;
52072;SDS011;38074;51.232;6.826;2023-02-28T22:35:14;1.33;;;0.43;;
52072;SDS011;38074;51.232;6.826;2023-02-28T22:42:33;0.97;;;0.53;;
52072;SDS011;38074;51.232;6.826;2023-02-28T22:49:49;1.08;;;0.40;;
52072;SDS011;38074;51.232;6.826;2023-02-28T22:57:04;1.47;;;0.60;;
52072;SDS011;38074;51.232;6.826;2023-02-28T23:04:20;1.13;;;0.60;;
52072;SDS011;38074;51.232;6.826;2023-02-28T23:11:40;1.20;;;0.40;;
52072;SDS011;38074;51.232;6.826;2023-02-28T23:18:57;0.90;;;0.50;;
52072;SDS011;38074;51.232;6.826;2023-02-28T23:33:30;1.23;;;0.50;;
52072;SDS011;38074;51.232;6.826;2023-02-28T23:40:46;1.23;;;0.65;;
52072;SDS011;38074;51.232;6.826;2023-02-28T23:48:02;0.80;;;0.55;;
52072;SDS011;38074;51.232;6.826;2023-02-28T23:55:18;0.85;;;0.40;;
